Time;durP1;ratioP1;P1;durP2;ratioP2;P2;SDS_P1;SDS_P2;PMS_P1;PMS_P2;Temp;Humidity;BMP_temperature;BMP_pressure;BME280_temperature;BME280_humidity;BME280_pressure;Samples;Min_cycle;Max_cycle;Signal;HPM_P1;HPM_P2
2022/09/16 00:01:24;;;;;;;0.90;0.77;;;;;;;30.67;24.87;97136.34;5043692;28;20060;-79
2022/09/16 00:03:55;;;;;;;1.30;1.02;;;;;;;30.66;24.54;97124.25;5046242;28;20067;-78
2022/09/16 00:06:27;;;;;;;0.80;0.80;;;;;;;30.70;24.84;97133.31;5040969;28;20040;-78
2022/09/16 00:08:56;;;;;;;3.42;0.90;;;;;;;30.69;24.62;97136.66;5045568;28;20033;-78
2022/09/16 00:11:22;;;;;;;1.00;0.90;;;;;;;30.54;25.02;97133.94;5043024;28;20050;-78
2022/09/16 00:13:48;;;;;;;1.40;0.80;;;;;;;30.49;25.07;97137.50;5046910;28;20123;-78
2022/09/16 00:16:24;;;;;;;1.15;0.77;;;;;;;30.42;25.49;97135.09;5038118;28;20079;-78
2022/09/16 00:18:54;;;;;;;1.23;1.05;;;;;;;30.61;25.13;97129.88;5046610;28;20028;-78
2022/09/16 00:21:21;;;;;;;1.75;0.90;;;;;;;30.82;24.73;97144.72;5045250;28;20032;-78
2022/09/16 00:23:47;;;;;;;0.95;0.77;;;;;;;30.91;24.90;97142.53;5047396;28;20037;-78
2022/09/16 00:26:13;;;;;;;3.10;0.93;;;;;;;30.78;24.75;97144.97;5045691;28;20043;-78
2022/09/16 00:28:39;;;;;;;2.42;0.95;;;;;;;30.64;25.07;97151.53;5041547;28;20840;-78
2022/09/16 00:31:05;;;;;;;10.57;2.13;;;;;;;30.51;25.40;97151.94;5043071;28;20790;-78
2022/09/16 00:33:32;;;;;;;1.65;1.40;;;;;;;30.35;25.94;97148.91;5046686;28;20172;-78
2022/09/16 00:36:06;;;;;;;1.27;1.00;;;;;;;30.61;25.65;97153.31;5042562;28;20043;-78
2022/09/16 00:38:32;;;;;;;1.98;1.08;;;;;;;30.69;25.27;97143.06;5046156;28;20024;-78
2022/09/16 00:40:58;;;;;;;1.48;1.02;;;;;;;30.47;25.20;97153.44;5045001;28;20040;-78
2022/09/16 00:43:25;;;;;;;1.90;0.98;;;;;;;30.44;25.67;97148.75;5050421;28;20044;-78
2022/09/16 00:46:01;;;;;;;1.98;0.98;;;;;;;30.49;25.44;97153.69;5039283;28;20045;-78
2022/09/16 00:48:31;;;;;;;1.30;1.05;;;;;;;30.45;25.82;97148.28;5051684;28;20040;-78
2022/09/16 00:51:04;;;;;;;0.80;0.80;;;;;;;30.77;25.69;97147.03;5041524;28;20040;-77
2022/09/16 00:53:38;;;;;;;0.80;0.80;;;;;;;31.18;25.22;97158.22;5042291;28;20454;-78
2022/09/16 00:56:08;;;;;;;1.95;1.10;;;;;;;31.00;24.84;97150.06;5043700;28;20044;-78
2022/09/16 00:58:38;;;;;;;1.52;0.90;;;;;;;30.98;25.12;97156.25;5045172;28;20389;-78
2022/09/16 01:01:04;;;;;;;0.85;0.85;;;;;;;31.19;24.89;97163.38;5046565;28;20416;-78
2022/09/16 01:03:53;;;;;;;0.98;0.98;;;;;;;31.39;24.88;97159.66;5053640;28;20741;-78
2022/09/16 01:06:20;;;;;;;1.05;0.95;;;;;;;31.15;25.04;97159.22;5043697;28;20133;-78
2022/09/16 01:08:49;;;;;;;1.88;1.00;;;;;;;31.23;25.21;97161.06;5040978;28;20113;-78
2022/09/16 01:11:15;;;;;;;1.52;1.02;;;;;;;31.17;25.25;97168.78;5043079;28;20036;-78
2022/09/16 01:13:43;;;;;;;4.13;1.00;;;;;;;31.34;25.27;97163.22;5047183;28;20170;-78
2022/09/16 01:16:20;;;;;;;2.17;1.02;;;;;;;31.42;25.32;97170.78;5052945;28;20032;-78
2022/09/16 01:19:30;;;;;;;1.13;1.08;;;;;;;31.39;25.39;97171.00;5041879;28;20057;-78
2022/09/16 01:22:11;;;;;;;1.27;0.95;;;;;;;31.25;25.62;97169.84;5045988;28;20037;-78
2022/09/16 01:25:06;;;;;;;1.40;1.08;;;;;;;31.36;25.29;97177.69;5045513;28;20238;-78
2022/09/16 01:28:01;;;;;;;1.10;0.82;;;;;;;31.47;25.49;97174.16;5041006;28;20040;-78
2022/09/16 01:30:34;;;;;;;4.00;1.00;;;;;;;31.60;24.96;97180.94;5039862;28;20098;-78
2022/09/16 01:33:10;;;;;;;0.70;0.70;;;;;;;31.74;25.01;97182.81;5041203;28;20029;-78
2022/09/16 01:35:51;;;;;;;2.22;1.30;;;;;;;31.48;24.96;97179.34;5043767;28;20051;-78
2022/09/16 01:38:23;;;;;;;1.80;1.20;;;;;;;31.36;24.97;97166.31;5041852;28;20061;-78
2022/09/16 01:41:14;;;;;;;1.40;1.05;;;;;;;31.01;25.76;97169.41;5049692;28;20036;-78
2022/09/16 01:43:49;;;;;;;3.15;1.30;;;;;;;30.87;25.82;97169.53;5042975;28;21037;-78
2022/09/16 01:46:37;;;;;;;1.90;1.30;;;;;;;31.06;25.91;97171.53;5045695;28;20063;-78
2022/09/16 01:49:29;;;;;;;1.63;1.20;;;;;;;31.29;25.50;97173.25;5044514;28;20064;-78
2022/09/16 01:52:17;;;;;;;1.33;1.10;;;;;;;31.50;25.00;97171.09;5045596;28;20145;-78
2022/09/16 01:54:58;;;;;;;2.17;1.50;;;;;;;31.41;25.36;97168.44;5046089;28;20041;-78
2022/09/16 01:57:56;;;;;;;1.40;1.25;;;;;;;31.53;25.05;97169.31;5046731;28;20114;-78
2022/09/16 02:00:23;;;;;;;1.20;1.10;;;;;;;31.73;24.72;97152.91;5047373;28;20113;-78
2022/09/16 02:03:03;;;;;;;2.28;1.10;;;;;;;31.81;24.35;97162.47;5049733;28;21143;-78
2022/09/16 02:05:53;;;;;;;3.83;1.40;;;;;;;31.63;25.17;97156.44;5048205;28;20095;-78
2022/09/16 02:08:35;;;;;;;1.38;1.00;;;;;;;31.70;24.89;97161.63;5048273;28;20044;-78
2022/09/16 02:11:07;;;;;;;1.90;0.93;;;;;;;31.72;24.74;97165.53;5044784;28;20055;-78
2022/09/16 02:13:38;;;;;;;4.35;1.85;;;;;;;31.83;24.53;97171.28;5051214;28;20041;-78
2022/09/16 02:16:12;;;;;;;2.70;1.30;;;;;;;31.79;24.45;97167.88;5044907;28;20409;-78
2022/09/16 02:18:42;;;;;;;1.40;1.30;;;;;;;31.60;24.77;97171.66;5043530;28;20112;-78
2022/09/16 02:21:14;;;;;;;1.48;1.10;;;;;;;31.50;24.81;97179.59;5037968;28;21570;-78
2022/09/16 02:23:51;;;;;;;1.85;1.10;;;;;;;31.37;24.99;97188.50;5039592;28;20075;-78
2022/09/16 02:26:23;;;;;;;1.58;1.48;;;;;;;30.83;25.86;97185.97;5045014;28;20186;-78
2022/09/16 02:28:52;;;;;;;1.35;1.08;;;;;;;30.74;26.36;97181.25;5041372;28;21123;-78
2022/09/16 02:31:23;;;;;;;1.95;1.10;;;;;;;31.03;25.49;97181.03;5041901;28;20089;-78
2022/09/16 02:34:10;;;;;;;2.97;1.63;;;;;;;30.72;26.05;97195.94;5048826;28;20044;-78
2022/09/16 02:36:39;;;;;;;3.78;1.42;;;;;;;30.73;25.88;97193.88;5042619;28;20071;-78
2022/09/16 02:39:09;;;;;;;2.90;1.30;;;;;;;30.95;25.84;97190.50;5043461;28;20038;-78
2022/09/16 02:41:39;;;;;;;2.30;1.40;;;;;;;31.25;25.56;97186.88;5046599;28;20029;-78
2022/09/16 02:44:07;;;;;;;1.25;1.15;;;;;;;31.54;25.19;97187.88;5041575;28;20067;-78
2022/09/16 02:46:54;;;;;;;2.72;1.15;;;;;;;31.79;25.04;97192.66;5045248;28;20029;-78
2022/09/16 02:49:39;;;;;;;1.60;1.10;;;;;;;31.45;25.08;97191.69;5041888;28;20401;-78
2022/09/16 02:52:27;;;;;;;1.50;1.40;;;;;;;31.20;25.19;97189.69;5041020;28;20071;-78
2022/09/16 02:55:04;;;;;;;2.28;1.30;;;;;;;31.23;25.49;97197.16;5045849;28;20063;-78
2022/09/16 02:57:31;;;;;;;1.10;1.00;;;;;;;30.99;25.71;97194.66;5046483;28;20044;-78
2022/09/16 02:59:57;;;;;;;1.40;0.90;;;;;;;31.00;25.89;97190.53;5038524;28;21940;-78
2022/09/16 03:02:24;;;;;;;1.10;1.00;;;;;;;31.15;25.30;97187.56;5043210;28;20040;-78
2022/09/16 03:04:50;;;;;;;2.35;1.30;;;;;;;31.22;25.31;97190.72;5039644;28;20102;-78
2022/09/16 03:07:17;;;;;;;7.03;1.30;;;;;;;31.18;25.09;97183.75;5042387;28;20032;-78
2022/09/16 03:09:45;;;;;;;2.00;1.30;;;;;;;31.25;25.33;97180.44;5039127;28;20589;-78
2022/09/16 03:12:29;;;;;;;3.13;1.30;;;;;;;31.38;25.29;97184.41;5042247;28;21669;-78
2022/09/16 03:15:18;;;;;;;3.65;1.10;;;;;;;31.51;24.91;97175.47;5042248;28;20052;-77
2022/09/16 03:18:03;;;;;;;3.55;1.10;;;;;;;31.57;25.04;97164.94;5044984;28;20215;-78
2022/09/16 03:20:42;;;;;;;1.05;0.90;;;;;;;31.84;24.58;97172.03;5038541;28;20052;-78
2022/09/16 03:23:46;;;;;;;1.05;0.80;;;;;;;31.85;24.37;97173.59;5042235;28;20040;-78
2022/09/16 03:26:45;;;;;;;0.88;0.80;;;;;;;31.49;24.98;97174.41;5047315;28;20042;-78
2022/09/16 03:29:26;;;;;;;7.65;1.10;;;;;;;31.37;24.84;97174.31;5044339;28;20036;-78
2022/09/16 03:32:02;;;;;;;1.23;1.13;;;;;;;31.26;25.29;97179.94;5041675;28;20040;-78
2022/09/16 03:35:04;;;;;;;0.93;0.90;;;;;;;31.45;25.29;97174.66;5041756;28;20037;-78
2022/09/16 03:37:34;;;;;;;1.10;0.88;;;;;;;31.70;24.32;97182.28;5041963;28;20247;-78
2022/09/16 03:40:10;;;;;;;0.75;0.75;;;;;;;31.89;24.09;97176.97;5043261;28;20032;-78
2022/09/16 03:42:41;;;;;;;0.70;0.70;;;;;;;32.04;23.86;97175.50;5048985;28;20028;-78
2022/09/16 03:45:28;;;;;;;0.95;0.85;;;;;;;32.14;23.59;97181.00;5038650;28;21180;-78
2022/09/16 03:47:54;;;;;;;3.42;1.00;;;;;;;31.91;24.20;97182.91;5040913;28;20895;-78
2022/09/16 03:50:20;;;;;;;1.40;0.90;;;;;;;31.08;24.85;97179.53;5046152;28;20051;-78
2022/09/16 03:52:46;;;;;;;0.93;0.82;;;;;;;30.25;26.12;97176.59;5044987;28;20052;-77
2022/09/16 03:55:13;;;;;;;4.20;0.82;;;;;;;30.53;25.89;97174.88;5046451;28;20114;-78
2022/09/16 03:57:39;;;;;;;0.80;0.73;;;;;;;31.03;25.09;97171.75;5064726;28;20029;-78
2022/09/16 04:00:07;;;;;;;1.00;0.90;;;;;;;31.23;25.13;97177.31;5061537;28;20040;-78
2022/09/16 04:02:34;;;;;;;1.00;0.90;;;;;;;30.62;25.93;97171.88;5072933;28;20453;-78
2022/09/16 04:05:00;;;;;;;0.98;0.90;;;;;;;30.91;25.52;97176.53;5069176;28;20106;-78
2022/09/16 04:07:26;;;;;;;0.98;0.90;;;;;;;30.91;25.26;97173.72;5074027;28;20021;-78
2022/09/16 04:09:52;;;;;;;1.73;1.15;;;;;;;31.04;24.86;97181.81;5069136;28;20040;-78
2022/09/16 04:12:18;;;;;;;0.98;0.88;;;;;;;31.27;24.65;97186.38;5068828;28;20032;-78
2022/09/16 04:14:44;;;;;;;0.80;0.80;;;;;;;31.35;24.17;97188.25;5072316;28;20033;-79
2022/09/16 04:17:10;;;;;;;1.15;1.08;;;;;;;31.46;24.05;97181.13;5066225;28;20066;-78
2022/09/16 04:19:36;;;;;;;0.77;0.77;;;;;;;31.04;24.17;97184.66;5064756;28;20059;-78
2022/09/16 04:22:02;;;;;;;0.85;0.75;;;;;;;30.86;24.46;97190.63;5059896;28;20549;-78
2022/09/16 04:24:29;;;;;;;0.93;0.60;;;;;;;30.84;24.45;97196.81;5059403;28;20111;-78
2022/09/16 04:26:55;;;;;;;1.35;0.80;;;;;;;30.90;24.46;97192.00;5065326;28;20036;-78
2022/09/16 04:29:21;;;;;;;1.20;0.70;;;;;;;30.94;24.36;97197.44;5069474;28;20032;-79
2022/09/16 04:31:47;;;;;;;1.13;0.93;;;;;;;31.00;24.39;97201.09;5073460;28;20045;-80
2022/09/16 04:34:13;;;;;;;2.05;1.00;;;;;;;31.12;24.52;97200.69;5072734;28;20443;-79
2022/09/16 04:36:39;;;;;;;0.65;0.65;;;;;;;31.36;24.02;97201.16;5071722;28;20033;-79
2022/09/16 04:39:06;;;;;;;4.85;2.13;;;;;;;31.41;23.69;97208.91;5065755;28;20064;-78
2022/09/16 04:41:32;;;;;;;0.82;0.82;;;;;;;31.46;23.84;97213.09;5063113;28;20031;-79
2022/09/16 04:43:59;;;;;;;0.93;0.90;;;;;;;31.57;23.79;97215.25;5065966;28;20025;-78
2022/09/16 04:46:28;;;;;;;1.90;0.80;;;;;;;31.72;23.67;97213.78;5065257;28;20116;-80
2022/09/16 04:48:55;;;;;;;1.50;0.90;;;;;;;31.84;23.88;97226.75;5063183;28;20230;-78
2022/09/16 04:51:22;;;;;;;5.53;1.15;;;;;;;31.82;24.00;97220.03;5067310;28;20582;-80
2022/09/16 04:53:49;;;;;;;1.13;0.82;;;;;;;31.61;23.84;97225.06;5064293;28;20039;-79
2022/09/16 04:56:20;;;;;;;2.08;0.90;;;;;;;31.38;24.01;97218.44;5067409;28;20389;-78
2022/09/16 04:58:50;;;;;;;2.00;0.93;;;;;;;31.20;24.33;97213.13;5075464;28;20024;-78
2022/09/16 05:01:22;;;;;;;1.10;1.00;;;;;;;31.21;24.42;97211.84;5075035;28;20501;-78
2022/09/16 05:03:51;;;;;;;0.90;0.90;;;;;;;31.23;24.09;97219.84;5073891;28;20436;-78
2022/09/16 05:06:22;;;;;;;0.65;0.65;;;;;;;31.16;24.27;97223.16;5075550;28;20119;-78
2022/09/16 05:08:50;;;;;;;0.80;0.80;;;;;;;31.03;24.67;97229.25;5071516;28;20029;-78
2022/09/16 05:11:19;;;;;;;0.70;0.70;;;;;;;30.92;24.63;97231.97;5072540;28;20093;-78
2022/09/16 05:13:45;;;;;;;1.35;0.75;;;;;;;31.07;24.65;97223.31;5073478;28;20032;-78
2022/09/16 05:16:22;;;;;;;3.03;1.10;;;;;;;31.22;24.74;97226.81;5073093;28;20505;-78
2022/09/16 05:18:50;;;;;;;0.75;0.75;;;;;;;31.46;24.46;97226.53;5075232;28;20063;-78
2022/09/16 05:21:21;;;;;;;1.00;0.93;;;;;;;31.76;24.33;97227.75;5075354;28;20035;-78
2022/09/16 05:23:47;;;;;;;1.48;1.20;;;;;;;31.90;24.38;97227.56;5067008;28;20119;-78
2022/09/16 05:26:22;;;;;;;2.58;1.27;;;;;;;31.86;24.57;97235.53;5072120;28;20482;-78
2022/09/16 05:28:51;;;;;;;1.27;1.17;;;;;;;32.13;24.19;97228.50;5066939;28;20039;-78
2022/09/16 05:31:23;;;;;;;1.50;1.00;;;;;;;32.41;24.50;97218.03;5065018;28;20040;-78
2022/09/16 05:34:00;;;;;;;1.23;1.10;;;;;;;32.42;24.73;97213.88;5072824;28;20051;-78
2022/09/16 05:36:29;;;;;;;1.25;1.15;;;;;;;32.18;24.27;97221.28;5075224;28;20494;-78
2022/09/16 05:38:55;;;;;;;1.23;1.13;;;;;;;32.24;24.19;97224.91;5074898;28;20033;-78
2022/09/16 05:41:22;;;;;;;1.30;1.20;;;;;;;31.88;24.52;97235.06;5072373;28;20086;-78
2022/09/16 05:43:48;;;;;;;1.73;1.10;;;;;;;31.67;24.73;97220.19;5073061;28;20028;-78
2022/09/16 05:46:22;;;;;;;1.23;1.05;;;;;;;31.72;25.01;97224.34;5067401;28;20032;-78
2022/09/16 05:48:49;;;;;;;2.78;1.13;;;;;;;31.57;25.11;97216.03;5072908;28;20032;-78
2022/09/16 05:51:20;;;;;;;1.77;1.10;;;;;;;31.78;25.02;97213.81;5074433;28;20123;-78
2022/09/16 05:53:47;;;;;;;1.33;1.20;;;;;;;32.19;24.34;97212.25;5073731;28;20029;-78
2022/09/16 05:56:20;;;;;;;1.20;1.10;;;;;;;32.20;24.02;97210.97;5072505;28;20055;-78
2022/09/16 05:58:47;;;;;;;1.30;1.20;;;;;;;32.06;24.07;97215.56;5073402;28;20029;-78
2022/09/16 06:01:14;;;;;;;1.20;1.10;;;;;;;32.21;24.51;97215.34;5073386;28;20464;-78
2022/09/16 06:03:42;;;;;;;1.63;1.25;;;;;;;32.56;24.14;97215.75;5073766;28;20024;-78
2022/09/16 06:06:25;;;;;;;1.92;1.00;;;;;;;32.82;23.65;97214.75;5094434;28;20062;-78
2022/09/16 06:08:53;;;;;;;0.93;0.93;;;;;;;32.54;24.15;97200.50;5090294;28;20039;-78
2022/09/16 06:11:20;;;;;;;0.80;0.80;;;;;;;32.74;24.20;97201.06;5064654;28;20567;-78
2022/09/16 06:13:46;;;;;;;1.10;1.00;;;;;;;33.01;23.91;97204.44;5057589;28;20090;-78
2022/09/16 06:16:16;;;;;;;1.00;0.90;;;;;;;32.76;24.40;97194.88;5070973;28;20078;-78
2022/09/16 06:18:42;;;;;;;2.10;1.30;;;;;;;33.06;23.83;97204.50;5074276;28;20418;-78
2022/09/16 06:21:11;;;;;;;0.90;0.90;;;;;;;33.11;23.05;97203.72;5069485;28;20471;-78
2022/09/16 06:23:39;;;;;;;1.30;0.90;;;;;;;33.14;23.12;97201.91;5053922;28;20568;-78
2022/09/16 06:26:08;;;;;;;3.30;0.93;;;;;;;33.20;23.39;97206.31;5054099;28;20057;-78
2022/09/16 06:28:35;;;;;;;1.10;0.98;;;;;;;33.22;22.89;97214.31;5063860;28;20029;-78
2022/09/16 06:31:05;;;;;;;0.70;0.60;;;;;;;33.36;23.57;97208.38;5062900;28;20040;-78
2022/09/16 06:33:31;;;;;;;0.93;0.77;;;;;;;33.43;23.48;97209.91;5072775;28;20025;-78
2022/09/16 06:36:01;;;;;;;2.08;1.00;;;;;;;33.46;23.01;97210.94;5073751;28;20025;-78
2022/09/16 06:38:27;;;;;;;0.80;0.80;;;;;;;33.05;22.54;97210.72;5060848;28;20025;-78
2022/09/16 06:40:56;;;;;;;1.13;0.75;;;;;;;32.51;23.59;97201.53;5059522;28;20082;-78
2022/09/16 06:43:22;;;;;;;1.70;0.80;;;;;;;32.82;23.97;97198.50;5072608;28;20029;-78
2022/09/16 06:45:48;;;;;;;1.35;0.80;;;;;;;32.79;23.28;97205.22;5072417;28;20048;-78
2022/09/16 06:48:14;;;;;;;1.48;0.88;;;;;;;32.87;23.35;97209.09;5073696;28;20028;-78
2022/09/16 06:50:40;;;;;;;6.63;1.75;;;;;;;32.88;23.03;97207.03;5073321;28;20093;-78
2022/09/16 06:53:06;;;;;;;1.38;0.77;;;;;;;32.92;23.71;97205.50;5071828;28;20082;-78
2022/09/16 06:55:33;;;;;;;1.23;0.85;;;;;;;33.30;24.00;97204.72;5065055;28;20482;-78
2022/09/16 06:57:59;;;;;;;1.85;0.75;;;;;;;33.13;23.45;97203.97;5057376;28;20074;-78
2022/09/16 07:00:25;;;;;;;0.90;0.70;;;;;;;32.96;23.83;97203.16;5058995;28;20094;-78
2022/09/16 07:02:51;;;;;;;0.80;0.70;;;;;;;33.31;23.66;97197.75;5072272;28;20043;-78
2022/09/16 07:05:17;;;;;;;1.08;0.73;;;;;;;33.28;23.34;97198.03;5066829;28;20028;-78
2022/09/16 07:07:43;;;;;;;1.05;0.60;;;;;;;33.37;23.18;97200.63;5072446;28;20028;-78
2022/09/16 07:10:09;;;;;;;1.95;0.70;;;;;;;33.43;22.57;97205.00;5073154;28;20021;-78
2022/09/16 07:12:35;;;;;;;1.65;0.90;;;;;;;33.12;22.57;97204.47;5065573;28;20032;-78
2022/09/16 07:15:01;;;;;;;0.80;0.70;;;;;;;32.87;23.98;97197.72;5061111;28;20063;-78
2022/09/16 07:17:28;;;;;;;1.00;0.80;;;;;;;33.04;23.58;97207.09;5072084;28;20048;-78
2022/09/16 07:19:54;;;;;;;1.33;0.77;;;;;;;33.41;23.48;97203.97;5072995;28;20115;-78
2022/09/16 07:22:20;;;;;;;2.53;0.73;;;;;;;33.43;22.71;97202.16;5072855;28;20020;-79
2022/09/16 07:24:47;;;;;;;0.88;0.70;;;;;;;33.18;23.20;97202.44;5073091;28;20093;-78
2022/09/16 07:27:13;;;;;;;0.90;0.90;;;;;;;32.79;24.06;97187.38;5065782;28;20025;-79
2022/09/16 07:29:39;;;;;;;1.30;0.70;;;;;;;33.05;23.81;97197.25;5071141;28;20486;-79
2022/09/16 07:32:05;;;;;;;1.48;0.75;;;;;;;33.53;22.93;97194.16;5072237;28;20497;-79
2022/09/16 07:34:31;;;;;;;0.70;0.65;;;;;;;33.46;22.30;97197.50;5072621;28;20059;-79
2022/09/16 07:36:58;;;;;;;0.98;0.68;;;;;;;33.37;22.49;97189.97;5072939;28;20398;-79
2022/09/16 07:39:24;;;;;;;0.75;0.60;;;;;;;33.20;22.69;97194.94;5072791;28;20028;-79
2022/09/16 07:41:50;;;;;;;0.80;0.80;;;;;;;33.10;22.92;97190.78;5069795;28;20162;-79
2022/09/16 07:44:19;;;;;;;0.93;0.93;;;;;;;32.76;24.23;97200.56;5072661;28;20032;-79
2022/09/16 07:46:45;;;;;;;1.50;0.73;;;;;;;32.98;22.49;97202.66;5057451;28;20120;-79
2022/09/16 07:49:13;;;;;;;1.08;0.90;;;;;;;33.29;23.21;97194.66;5068163;28;20033;-79
2022/09/16 07:51:40;;;;;;;2.83;0.85;;;;;;;32.77;22.55;97204.94;5072141;28;20036;-79
2022/09/16 07:54:10;;;;;;;1.02;0.70;;;;;;;32.38;23.10;97207.66;5071616;28;20036;-79
2022/09/16 07:56:38;;;;;;;0.73;0.73;;;;;;;31.44;25.33;97209.22;5072764;28;20103;-79
2022/09/16 07:59:06;;;;;;;3.10;0.82;;;;;;;31.25;26.42;97205.97;5073065;28;20037;-79
2022/09/16 08:01:33;;;;;;;2.00;1.00;;;;;;;31.00;24.41;97204.72;5072108;28;20037;-79
2022/09/16 08:04:00;;;;;;;1.00;0.80;;;;;;;31.98;23.88;97203.13;5059256;28;20060;-79
2022/09/16 08:06:28;;;;;;;1.23;0.95;;;;;;;31.68;23.57;97201.91;5091408;28;20500;-79
2022/09/16 08:08:59;;;;;;;2.05;1.17;;;;;;;32.08;24.00;97200.84;5082581;28;20402;-79
2022/09/16 08:11:26;;;;;;;1.23;0.93;;;;;;;31.91;23.47;97195.06;5068759;28;20028;-79
2022/09/16 08:13:52;;;;;;;1.52;0.90;;;;;;;31.84;23.88;97203.25;5072887;28;20044;-79
2022/09/16 08:16:21;;;;;;;0.82;0.82;;;;;;;32.02;24.11;97209.31;5072646;28;20024;-79
2022/09/16 08:18:49;;;;;;;3.03;0.80;;;;;;;31.28;23.57;97216.28;5069996;28;20073;-79
2022/09/16 08:21:17;;;;;;;0.80;0.80;;;;;;;31.08;24.37;97219.22;5054113;28;20036;-79
2022/09/16 08:23:44;;;;;;;0.90;0.90;;;;;;;31.34;26.95;97220.72;5065460;28;20063;-79
2022/09/16 08:26:12;;;;;;;1.77;1.33;;;;;;;30.63;26.72;97227.28;5072088;28;20028;-79
2022/09/16 08:28:40;;;;;;;1.08;0.90;;;;;;;30.81;24.52;97216.88;5058605;28;20032;-79
2022/09/16 08:31:08;;;;;;;2.25;0.80;;;;;;;30.81;25.04;97222.56;5072597;28;20086;-79
2022/09/16 08:33:34;;;;;;;4.85;1.00;;;;;;;30.93;24.28;97216.50;5070159;28;20037;-78
2022/09/16 08:36:03;;;;;;;1.13;1.08;;;;;;;31.62;24.54;97220.97;5069869;28;20044;-79
2022/09/16 08:38:29;;;;;;;1.98;1.15;;;;;;;31.62;23.97;97220.19;5055302;28;20461;-79
2022/09/16 08:41:04;;;;;;;0.88;0.88;;;;;;;32.42;23.79;97210.25;5062923;28;20100;-79
2022/09/16 08:43:58;;;;;;;1.17;1.00;;;;;;;32.61;22.92;97219.91;5076058;28;20141;-79
2022/09/16 08:46:35;;;;;;;1.83;0.95;;;;;;;32.36;23.12;97215.94;5056704;28;20116;-79
2022/09/16 08:49:15;;;;;;;1.90;0.88;;;;;;;32.05;24.00;97225.34;5075777;28;20028;-79
2022/09/16 08:51:42;;;;;;;0.80;0.80;;;;;;;31.84;25.19;97225.97;5075291;28;20036;-79
2022/09/16 08:54:22;;;;;;;1.17;0.90;;;;;;;31.71;24.26;97225.66;5070006;28;20029;-79
2022/09/16 08:56:48;;;;;;;1.00;1.00;;;;;;;31.30;24.27;97233.56;5073676;28;20032;-79
2022/09/16 08:59:22;;;;;;;2.05;1.10;;;;;;;31.54;24.08;97219.88;5075920;28;20024;-78
2022/09/16 09:02:17;;;;;;;1.92;1.02;;;;;;;32.46;23.25;97213.63;5075213;28;20045;-79
2022/09/16 09:04:43;;;;;;;1.05;1.05;;;;;;;32.28;24.63;97202.75;5073247;28;20389;-78
2022/09/16 09:07:23;;;;;;;0.93;0.90;;;;;;;32.03;24.13;97202.38;5074613;28;20082;-78
2022/09/16 09:10:03;;;;;;;1.17;1.02;;;;;;;31.73;26.08;97212.50;5074925;28;20028;-78
2022/09/16 09:12:38;;;;;;;1.55;0.90;;;;;;;32.08;24.02;97204.47;5061666;28;20028;-78
2022/09/16 09:15:32;;;;;;;2.05;0.90;;;;;;;33.03;23.11;97207.59;5067220;28;20448;-79
2022/09/16 09:18:44;;;;;;;1.88;1.00;;;;;;;32.33;22.37;97197.06;5074274;28;20453;-79
2022/09/16 09:21:45;;;;;;;1.35;0.90;;;;;;;32.89;23.45;97205.72;5071741;28;20486;-78
2022/09/16 09:24:30;;;;;;;2.60;1.02;;;;;;;32.85;22.57;97203.16;5074142;28;20429;-78
2022/09/16 09:27:13;;;;;;;1.15;0.75;;;;;;;32.67;23.36;97195.13;5072372;28;20040;-79
2022/09/16 09:30:00;;;;;;;0.90;0.73;;;;;;;31.86;21.96;97204.31;5063206;28;20060;-79
2022/09/16 09:32:57;;;;;;;2.80;0.70;;;;;;;30.86;23.63;97208.41;5074690;28;20031;-79
2022/09/16 09:35:30;;;;;;;0.60;0.60;;;;;;;30.75;25.45;97211.94;5072856;28;20041;-78
2022/09/16 09:38:12;;;;;;;1.35;0.73;;;;;;;31.36;23.94;97214.56;5066899;28;20033;-78
2022/09/16 09:41:09;;;;;;;0.60;0.60;;;;;;;30.74;23.06;97212.44;5074756;28;20478;-79
2022/09/16 09:43:51;;;;;;;0.60;0.60;;;;;;;31.35;23.95;97210.94;5070121;28;20045;-79
2022/09/16 09:46:22;;;;;;;0.80;0.80;;;;;;;31.56;25.98;97222.97;5072761;28;20112;-79
2022/09/16 09:48:53;;;;;;;;;;;;;;;31.89;22.33;97216.72;5075250;28;20093;-79
2022/09/16 09:51:28;;;;;;;0.93;0.70;;;;;;;31.00;28.58;97218.09;5072281;28;19977;-79
2022/09/16 09:54:09;;;;;;;1.45;0.70;;;;;;;31.13;25.39;97216.44;5074711;28;20032;-78
2022/09/16 09:56:40;;;;;;;1.23;0.90;;;;;;;30.74;27.10;97216.03;5074672;28;20082;-79
2022/09/16 09:59:25;;;;;;;2.42;0.75;;;;;;;30.98;24.07;97204.44;5074403;28;20475;-79
2022/09/16 10:01:59;;;;;;;0.65;0.65;;;;;;;31.68;26.43;97207.56;5073277;28;20037;-79
2022/09/16 10:04:27;;;;;;;1.50;0.82;;;;;;;31.73;24.83;97208.88;5073495;28;20520;-79
2022/09/16 10:06:55;;;;;;;0.75;0.75;;;;;;;32.04;25.18;97208.84;5072316;28;20584;-79
2022/09/16 10:09:22;;;;;;;0.85;0.82;;;;;;;32.33;24.97;97193.44;5074668;28;20039;-79
2022/09/16 10:11:51;;;;;;;1.25;1.15;;;;;;;31.19;31.08;97197.41;5073544;28;20482;-79
2022/09/16 10:14:34;;;;;;;1.70;1.08;;;;;;;31.21;25.79;97203.34;5074097;28;20064;-79
2022/09/16 10:17:02;;;;;;;1.83;1.55;;;;;;;30.90;25.81;97199.75;5074070;28;20039;-79
2022/09/16 10:19:39;;;;;;;3.65;1.98;;;;;;;29.81;31.77;97210.78;5062416;28;20490;-79
2022/09/16 10:22:17;;;;;;;5.07;2.28;;;;;;;28.84;30.41;97218.75;5059127;28;20040;-79
2022/09/16 10:24:53;;;;;;;2.22;2.00;;;;;;;28.97;31.27;97224.06;5072111;28;20032;-79
2022/09/16 10:27:22;;;;;;;3.05;2.28;;;;;;;28.91;28.40;97229.66;5074087;28;20036;-78
2022/09/16 10:30:15;;;;;;;3.25;2.58;;;;;;;29.55;32.04;97221.19;5073376;28;20090;-79
2022/09/16 10:32:54;;;;;;;2.50;2.30;;;;;;;30.27;28.53;97201.59;5070584;28;20042;-79
2022/09/16 10:35:23;;;;;;;1.95;1.73;;;;;;;31.64;26.68;97209.88;5068172;28;20039;-79
2022/09/16 10:37:52;;;;;;;1.55;1.45;;;;;;;32.44;25.79;97202.00;5065014;28;20032;-80
2022/09/16 10:40:19;;;;;;;2.67;1.98;;;;;;;31.47;27.54;97197.63;5058757;28;20072;-77
2022/09/16 10:42:49;;;;;;;1.70;1.60;;;;;;;32.19;26.83;97200.88;5064109;28;20032;-77
2022/09/16 10:45:26;;;;;;;;;;;;;;;32.53;23.29;97199.75;5068270;28;20453;-77
2022/09/16 10:47:58;;;;;;;1.40;1.30;;;;;;;32.43;26.63;97191.91;5065150;28;19971;-77
2022/09/16 10:50:25;;;;;;;1.55;1.23;;;;;;;32.38;25.44;97204.81;5068557;28;20526;-77
2022/09/16 10:52:53;;;;;;;1.52;1.10;;;;;;;32.40;23.93;97199.41;5068914;28;20087;-78
2022/09/16 10:55:19;;;;;;;2.00;1.08;;;;;;;32.83;23.39;97199.28;5068605;28;20432;-78
2022/09/16 10:57:45;;;;;;;1.08;1.08;;;;;;;32.49;24.34;97202.03;5071536;28;20033;-78
2022/09/16 11:00:17;;;;;;;1.10;1.00;;;;;;;33.50;24.42;97183.75;5068729;28;20048;-78
2022/09/16 11:03:13;;;;;;;0.93;0.90;;;;;;;33.21;22.81;97187.19;5063084;28;20075;-77
2022/09/16 11:06:08;;;;;;;1.80;1.13;;;;;;;32.65;23.24;97189.94;5077455;28;20038;-77
2022/09/16 11:08:52;;;;;;;0.75;0.75;;;;;;;32.78;23.22;97186.59;5056583;28;20040;-77
2022/09/16 11:11:28;;;;;;;1.50;0.80;;;;;;;32.75;22.75;97182.72;5066460;28;20032;-77
2022/09/16 11:14:02;;;;;;;0.70;0.70;;;;;;;33.35;22.10;97181.19;5068775;28;20398;-77
2022/09/16 11:17:10;;;;;;;1.30;0.50;;;;;;;33.19;20.03;97181.97;5064270;28;20032;-77
2022/09/16 11:19:59;;;;;;;0.93;0.57;;;;;;;32.88;21.99;97181.44;5070878;28;20399;-78
2022/09/16 11:22:30;;;;;;;0.88;0.70;;;;;;;32.71;24.03;97176.53;5068667;28;20083;-79
2022/09/16 11:25:07;;;;;;;0.70;0.70;;;;;;;32.52;24.22;97180.34;5067920;28;20493;-78
2022/09/16 11:27:54;;;;;;;0.75;0.75;;;;;;;31.72;26.15;97178.94;5065175;28;20052;-78
2022/09/16 11:30:21;;;;;;;0.65;0.60;;;;;;;32.73;23.00;97173.94;5064969;28;20035;-78
2022/09/16 11:33:05;;;;;;;0.60;0.60;;;;;;;32.98;23.17;97177.06;5070971;28;20158;-78
2022/09/16 11:35:41;;;;;;;1.33;0.60;;;;;;;33.23;23.51;97173.97;5061947;28;20151;-78
2022/09/16 11:38:19;;;;;;;0.77;0.65;;;;;;;33.07;22.43;97171.91;5070952;28;20543;-78
2022/09/16 11:40:55;;;;;;;0.93;0.60;;;;;;;32.59;24.06;97174.94;5066281;28;20032;-78
2022/09/16 11:43:56;;;;;;;1.50;0.80;;;;;;;32.33;23.31;97167.84;5070504;28;20037;-78
2022/09/16 11:47:03;;;;;;;1.05;0.90;;;;;;;31.95;23.66;97161.50;5068736;28;20123;-78
2022/09/16 11:50:16;;;;;;;0.52;0.52;;;;;;;33.24;22.93;97160.50;5051656;28;20047;-78
2022/09/16 11:53:05;;;;;;;0.70;0.70;;;;;;;33.53;22.31;97154.28;5059761;28;20051;-78
2022/09/16 11:55:55;;;;;;;1.40;0.70;;;;;;;33.04;24.33;97155.09;5065977;28;20447;-79
2022/09/16 11:58:31;;;;;;;2.97;0.60;;;;;;;33.80;22.43;97161.97;5060176;28;20052;-78
2022/09/16 12:01:03;;;;;;;1.15;0.70;;;;;;;33.18;22.68;97156.91;5065241;28;20060;-78
2022/09/16 12:04:05;;;;;;;0.47;0.47;;;;;;;33.51;22.78;97156.09;5068104;28;20047;-78